Grande Europa — ICGE — position and weather

sailwx.info

Track history (hours):
 
Tides and Currents Weather Stations Pressure Air Temp Water Temp Dewpoint Dewpoint Depression Visibility Wind Speed Wind Dir Waves Ship Positions

Grande Europa

Last reported at 2016-Jun-30 14:04 UTC. Time now 2016-Jul-02 09:35 UTC.
Position N 37°22' E 025°55'.

Length 183 m; draft 8.6 m.

Type: Cargo ship. MMSI: 247206000.

Date/timePositionNaut miles runAvg speedWind from/ knotsBaromVisibWave heightAir tempDewpointWater temp
2016-Jun-30 14:04N 37°22' E 025°55'73 2.4
2016-Jun-29 07:34N 37°51' E 024°30'2117.5
2016-Jun-29 06:20N 37°37' E 024°09'1316.1
2016-Jun-29 05:33N 37°34' E 023°54'1716.8
2016-Jun-29 04:33N 37°46' E 023°38'1211.7
2016-Jun-29 03:33N 37°58' E 023°36'0 0.0
2016-Jun-29 02:33N 37°58' E 023°36'0 0.0
2016-Jun-29 01:33N 37°58' E 023°36'0 0.0
2016-Jun-29 00:33N 37°58' E 023°36'0 0.0
2016-Jun-28 23:34N 37°58' E 023°36'0 0.0
2016-Jun-28 22:33N 37°58' E 023°36'0 0.0
2016-Jun-28 21:34N 37°58' E 023°36'0 0.0
2016-Jun-28 20:33N 37°58' E 023°36'0 0.0
2016-Jun-28 19:31N 37°58' E 023°36'0 0.0
2016-Jun-28 18:33N 37°58' E 023°36'0 0.0
2016-Jun-28 17:34N 37°58' E 023°36'3 3.3
2016-Jun-28 16:34N 37°54' E 023°37'1111.0
2016-Jun-28 15:33N 37°44' E 023°43'1716.7
2016-Jun-28 14:33N 37°28' E 023°43'1717.1
2016-Jun-28 13:33N 37°11' E 023°39'1817.5
2016-Jun-28 12:33N 36°54' E 023°34'1818.0
2016-Jun-28 11:33N 36°38' E 023°24'1817.6
2016-Jun-28 10:33N 36°23' E 023°13'34216.3
2016-Jun-27 13:31N 41°03' E 019°02'1717.8
2016-Jun-27 12:33N 41°20' E 019°02'3618.1
2016-Jun-27 10:33N 41°56' E 019°02'10 1.6
2016-Jun-27 04:11N 42°06' E 019°03'5 8.1
2016-Jun-27 03:33N 42°01' E 019°01'1817.7
2016-Jun-27 02:33N 41°44' E 018°58'27616.2
2016-Jun-26 09:33N 37°51' E 015°45'1414.5
2016-Jun-26 08:33N 38°03' E 015°34'1514.6
2016-Jun-26 07:33N 38°17' E 015°40'1716.9
2016-Jun-26 06:33N 38°33' E 015°33'129 6.8
2016-Jun-25 11:31N 40°36' E 014°40'1918.8
2016-Jun-25 10:30N 40°27' E 014°18'1718.5
2016-Jun-25 09:33N 40°21' E 013°56'1717.0
2016-Jun-25 08:33N 40°14' E 013°35'1717.1
2016-Jun-25 07:33N 40°08' E 013°15'1717.1
2016-Jun-25 06:33N 40°01' E 012°55'7418.3
2016-Jun-25 02:32N 39°33' E 011°26'2018.3
2016-Jun-25 01:25N 39°25' E 011°01'7118.4
2016-Jun-24 21:32N 38°57' E 009°37'1818.2
2016-Jun-24 20:33N 38°52' E 009°15'1818.3
2016-Jun-24 19:33N 38°48' E 008°52'4418.1
2016-Jun-24 17:06N 38°48' E 007°55'10918.3
2016-Jun-24 11:08N 38°54' E 005°35'1217.9
2016-Jun-24 10:27N 38°55' E 005°20'1718.2
2016-Jun-24 09:33N 38°56' E 004°58'1818.3
2016-Jun-24 08:33N 38°57' E 004°35'1918.6
2016-Jun-24 07:33N 38°58' E 004°11'5518.4
2016-Jun-24 04:33N 39°01' E 003°00'1918.7
2016-Jun-24 03:33N 39°03' E 002°36'1918.9
2016-Jun-24 02:33N 39°07' E 002°12'1918.9
2016-Jun-24 01:33N 39°10' E 001°48'2019.2
2016-Jun-24 00:32N 39°13' E 001°23'1818.6
2016-Jun-23 23:33N 39°16' E 001°00'1818.5
2016-Jun-23 22:33N 39°19' E 000°36'3718.3
2016-Jun-23 20:32N 39°24' W 000°11'6 6.1
2016-Jun-23 19:33N 39°26' W 000°18'0 0.0
2016-Jun-23 18:33N 39°26' W 000°18'0 0.0
2016-Jun-23 17:33N 39°26' W 000°18'0 0.0
2016-Jun-23 16:09N 39°26' W 000°18'0 0.0
2016-Jun-23 15:33N 39°26' W 000°18'0 0.0
2016-Jun-23 14:30N 39°26' W 000°18'0 0.0
2016-Jun-23 13:33N 39°26' W 000°18'0 0.1
2016-Jun-23 12:34N 39°26' W 000°18'1914.5
2016-Jun-23 11:13N 39°12' W 000°01'1318.9
2016-Jun-23 10:33N 39°03' E 000°10'1918.8
2016-Jun-23 09:33N 38°49' E 000°26'1615.8
2016-Jun-23 08:33N 38°34' E 000°22'1918.6
2016-Jun-23 07:32N 38°19' E 000°08'3618.3
2016-Jun-23 05:33N 37°49' W 000°18'1818.4
2016-Jun-23 04:33N 37°33' W 000°31'1818.3
2016-Jun-23 03:33N 37°21' W 000°48'1817.8
2016-Jun-23 02:32N 37°09' W 001°05'6460.6
2016-Jun-23 01:28N 36°27' W 002°05'15914.6
2016-Jun-22 14:34N 35°58' W 005°19'10416.4
2016-Jun-22 08:13N 36°07' W 007°28'6216.7
2016-Jun-22 04:31N 36°18' W 008°43'1817.5
2016-Jun-22 03:30N 36°23' W 009°04'1717.4
2016-Jun-22 02:32N 36°27' W 009°24'1818.1
2016-Jun-22 01:33N 36°41' W 009°38'1818.0
2016-Jun-22 00:33N 36°58' W 009°46'1918.5
2016-Jun-21 23:33N 37°16' W 009°51'1818.3
2016-Jun-21 22:33N 37°34' W 009°56'1818.2
2016-Jun-21 21:33N 37°52' W 010°01'1818.5
2016-Jun-21 20:33N 38°10' W 010°06'1918.7
2016-Jun-21 19:33N 38°28' W 010°11'1818.4
2016-Jun-21 18:33N 38°46' W 010°15'1918.8
2016-Jun-21 17:33N 39°05' W 010°15'1918.6
2016-Jun-21 16:33N 39°24' W 010°15'  
Track history (hours):
 
Tides and Currents Weather Stations Pressure Air Temp Water Temp Dewpoint Dewpoint Depression Visibility Wind Speed Wind Dir Waves Ship Positions

Grande Europa

Last reported at 2016-Jun-30 14:04 UTC. Time now 2016-Jul-02 09:35 UTC.
Position N 37°22' E 025°55'.

Length 183 m; draft 8.6 m.

Type: Cargo ship. MMSI: 247206000.

Date/timePositionNaut miles runAvg speedWind from/ knotsBaromVisibWave heightAir tempDewpointWater temp
2016-Jun-30 14:04N 37°22' E 025°55'73 2.4
2016-Jun-29 07:34N 37°51' E 024°30'2117.5
2016-Jun-29 06:20N 37°37' E 024°09'1316.1
2016-Jun-29 05:33N 37°34' E 023°54'1716.8
2016-Jun-29 04:33N 37°46' E 023°38'1211.7
2016-Jun-29 03:33N 37°58' E 023°36'0 0.0
2016-Jun-29 02:33N 37°58' E 023°36'0 0.0
2016-Jun-29 01:33N 37°58' E 023°36'0 0.0
2016-Jun-29 00:33N 37°58' E 023°36'0 0.0
2016-Jun-28 23:34N 37°58' E 023°36'0 0.0
2016-Jun-28 22:33N 37°58' E 023°36'0 0.0
2016-Jun-28 21:34N 37°58' E 023°36'0 0.0
2016-Jun-28 20:33N 37°58' E 023°36'0 0.0
2016-Jun-28 19:31N 37°58' E 023°36'0 0.0
2016-Jun-28 18:33N 37°58' E 023°36'0 0.0
2016-Jun-28 17:34N 37°58' E 023°36'3 3.3
2016-Jun-28 16:34N 37°54' E 023°37'1111.0
2016-Jun-28 15:33N 37°44' E 023°43'1716.7
2016-Jun-28 14:33N 37°28' E 023°43'1717.1
2016-Jun-28 13:33N 37°11' E 023°39'1817.5
2016-Jun-28 12:33N 36°54' E 023°34'1818.0
2016-Jun-28 11:33N 36°38' E 023°24'1817.6
2016-Jun-28 10:33N 36°23' E 023°13'34216.3
2016-Jun-27 13:31N 41°03' E 019°02'1717.8
2016-Jun-27 12:33N 41°20' E 019°02'3618.1
2016-Jun-27 10:33N 41°56' E 019°02'10 1.6
2016-Jun-27 04:11N 42°06' E 019°03'5 8.1
2016-Jun-27 03:33N 42°01' E 019°01'1817.7
2016-Jun-27 02:33N 41°44' E 018°58'27616.2
2016-Jun-26 09:33N 37°51' E 015°45'1414.5
2016-Jun-26 08:33N 38°03' E 015°34'1514.6
2016-Jun-26 07:33N 38°17' E 015°40'1716.9
2016-Jun-26 06:33N 38°33' E 015°33'129 6.8
2016-Jun-25 11:31N 40°36' E 014°40'1918.8
2016-Jun-25 10:30N 40°27' E 014°18'1718.5
2016-Jun-25 09:33N 40°21' E 013°56'1717.0
2016-Jun-25 08:33N 40°14' E 013°35'1717.1
2016-Jun-25 07:33N 40°08' E 013°15'1717.1
2016-Jun-25 06:33N 40°01' E 012°55'7418.3
2016-Jun-25 02:32N 39°33' E 011°26'2018.3
2016-Jun-25 01:25N 39°25' E 011°01'7118.4
2016-Jun-24 21:32N 38°57' E 009°37'1818.2
2016-Jun-24 20:33N 38°52' E 009°15'1818.3
2016-Jun-24 19:33N 38°48' E 008°52'4418.1
2016-Jun-24 17:06N 38°48' E 007°55'10918.3
2016-Jun-24 11:08N 38°54' E 005°35'1217.9
2016-Jun-24 10:27N 38°55' E 005°20'1718.2
2016-Jun-24 09:33N 38°56' E 004°58'1818.3
2016-Jun-24 08:33N 38°57' E 004°35'1918.6
2016-Jun-24 07:33N 38°58' E 004°11'5518.4
2016-Jun-24 04:33N 39°01' E 003°00'1918.7
2016-Jun-24 03:33N 39°03' E 002°36'1918.9
2016-Jun-24 02:33N 39°07' E 002°12'1918.9
2016-Jun-24 01:33N 39°10' E 001°48'2019.2
2016-Jun-24 00:32N 39°13' E 001°23'1818.6
2016-Jun-23 23:33N 39°16' E 001°00'1818.5
2016-Jun-23 22:33N 39°19' E 000°36'3718.3
2016-Jun-23 20:32N 39°24' W 000°11'6 6.1
2016-Jun-23 19:33N 39°26' W 000°18'0 0.0
2016-Jun-23 18:33N 39°26' W 000°18'0 0.0
2016-Jun-23 17:33N 39°26' W 000°18'0 0.0
2016-Jun-23 16:09N 39°26' W 000°18'0 0.0
2016-Jun-23 15:33N 39°26' W 000°18'0 0.0
2016-Jun-23 14:30N 39°26' W 000°18'0 0.0
2016-Jun-23 13:33N 39°26' W 000°18'0 0.1
2016-Jun-23 12:34N 39°26' W 000°18'1914.5
2016-Jun-23 11:13N 39°12' W 000°01'1318.9
2016-Jun-23 10:33N 39°03' E 000°10'1918.8
2016-Jun-23 09:33N 38°49' E 000°26'1615.8
2016-Jun-23 08:33N 38°34' E 000°22'1918.6
2016-Jun-23 07:32N 38°19' E 000°08'3618.3
2016-Jun-23 05:33N 37°49' W 000°18'1818.4
2016-Jun-23 04:33N 37°33' W 000°31'1818.3
2016-Jun-23 03:33N 37°21' W 000°48'1817.8
2016-Jun-23 02:32N 37°09' W 001°05'6460.6
2016-Jun-23 01:28N 36°27' W 002°05'15914.6
2016-Jun-22 14:34N 35°58' W 005°19'10416.4
2016-Jun-22 08:13N 36°07' W 007°28'6216.7
2016-Jun-22 04:31N 36°18' W 008°43'1817.5
2016-Jun-22 03:30N 36°23' W 009°04'1717.4
2016-Jun-22 02:32N 36°27' W 009°24'1818.1
2016-Jun-22 01:33N 36°41' W 009°38'1818.0
2016-Jun-22 00:33N 36°58' W 009°46'1918.5
2016-Jun-21 23:33N 37°16' W 009°51'1818.3
2016-Jun-21 22:33N 37°34' W 009°56'1818.2
2016-Jun-21 21:33N 37°52' W 010°01'1818.5
2016-Jun-21 20:33N 38°10' W 010°06'1918.7
2016-Jun-21 19:33N 38°28' W 010°11'1818.4
2016-Jun-21 18:33N 38°46' W 010°15'1918.8
2016-Jun-21 17:33N 39°05' W 010°15'1918.6
2016-Jun-21 16:33N 39°24' W 010°15'  

Dump ship's entire track history